Time;durP1;ratioP1;P1;durP2;ratioP2;P2;SDS_P1;SDS_P2;PMS_P1;PMS_P2;Temp;Humidity;BMP_temperature;BMP_pressure;BME280_temperature;BME280_humidity;BME280_pressure;Samples;Min_cycle;Max_cycle;Signal;HPM_P1;HPM_P2
2022/09/23 00:00:48;;;;;;;14.87;13.97;;;10.90;99.90;;;;;;5092251;28;20457;-67
2022/09/23 00:03:16;;;;;;;14.47;13.30;;;10.90;99.90;;;;;;5093366;28;21296;-67
2022/09/23 00:05:43;;;;;;;15.17;13.87;;;10.90;99.90;;;;;;5097423;28;20524;-67
2022/09/23 00:08:11;;;;;;;14.57;13.57;;;10.80;99.90;;;;;;5095145;28;20461;-67
2022/09/23 00:10:40;;;;;;;15.03;14.10;;;10.80;99.90;;;;;;5090762;28;21054;-67
2022/09/23 00:13:07;;;;;;;15.60;14.07;;;10.70;99.90;;;;;;5092384;28;20463;-70
2022/09/23 00:15:39;;;;;;;20.13;14.60;;;10.70;99.90;;;;;;5091271;28;20793;-68
2022/09/23 00:18:06;;;;;;;14.77;13.70;;;10.70;99.90;;;;;;5096327;28;20456;-67
2022/09/23 00:20:34;;;;;;;14.20;13.23;;;10.60;99.90;;;;;;5092150;28;20472;-67
2022/09/23 00:23:01;;;;;;;15.20;13.90;;;10.60;99.90;;;;;;5098278;28;20517;-69
2022/09/23 00:25:29;;;;;;;15.97;14.47;;;10.60;99.90;;;;;;5092518;28;20861;-70
2022/09/23 00:27:57;;;;;;;15.00;13.53;;;10.60;99.90;;;;;;5094309;28;20484;-68
2022/09/23 00:30:24;;;;;;;15.00;13.80;;;10.50;99.90;;;;;;5091192;28;20550;-67
2022/09/23 00:32:52;;;;;;;15.23;13.83;;;10.50;99.90;;;;;;5099605;28;20806;-67
2022/09/23 00:35:19;;;;;;;15.50;14.30;;;10.40;99.90;;;;;;5091495;28;20489;-68
2022/09/23 00:37:46;;;;;;;15.50;14.20;;;10.40;99.90;;;;;;5091877;28;20452;-68
2022/09/23 00:40:13;;;;;;;14.93;13.83;;;10.40;99.90;;;;;;5096817;28;20815;-68
2022/09/23 00:42:47;;;;;;;15.27;13.93;;;10.40;99.90;;;;;;5098619;28;20470;-67
2022/09/23 00:45:16;;;;;;;15.43;13.80;;;10.30;99.90;;;;;;5093037;28;20917;-68
2022/09/23 00:47:47;;;;;;;14.33;13.40;;;10.40;99.90;;;;;;5094328;28;20488;-68
2022/09/23 00:50:20;;;;;;;14.57;13.43;;;10.30;99.90;;;;;;5090161;28;20936;-67
2022/09/23 00:52:49;;;;;;;14.97;13.70;;;10.30;99.90;;;;;;5091518;28;20453;-67
2022/09/23 00:55:22;;;;;;;14.80;13.57;;;10.30;99.90;;;;;;5090915;28;20458;-70
2022/09/23 00:57:49;;;;;;;14.07;12.90;;;10.20;99.90;;;;;;5090303;28;20488;-68
2022/09/23 01:00:17;;;;;;;13.60;12.73;;;10.20;99.90;;;;;;5092436;28;20511;-70
2022/09/23 01:02:45;;;;;;;13.93;13.03;;;10.20;99.90;;;;;;5091740;28;20825;-67
2022/09/23 01:05:12;;;;;;;15.53;13.40;;;10.20;99.90;;;;;;5094260;28;20497;-68
2022/09/23 01:07:39;;;;;;;14.33;13.13;;;10.30;99.90;;;;;;5100234;28;20970;-67
2022/09/23 01:10:08;;;;;;;15.10;13.53;;;10.20;99.90;;;;;;5096015;28;20477;-67
2022/09/23 01:13:03;;;;;;;16.30;13.87;;;10.20;99.90;;;;;;5093126;28;20461;-70
2022/09/23 01:15:40;;;;;;;15.23;14.07;;;10.10;99.90;;;;;;5094958;28;20844;-68
2022/09/23 01:18:14;;;;;;;13.80;12.70;;;10.10;99.90;;;;;;5094303;28;20460;-69
2022/09/23 01:20:58;;;;;;;15.20;13.80;;;10.10;99.90;;;;;;5099814;28;20465;-67
2022/09/23 01:24:06;;;;;;;15.13;13.87;;;10.10;99.90;;;;;;5093173;28;20548;-68
2022/09/23 01:27:12;;;;;;;14.80;13.50;;;10.10;99.90;;;;;;5043657;28;20458;-69
2022/09/23 01:30:03;;;;;;;14.77;13.07;;;10.10;99.90;;;;;;5094864;28;20461;-70
2022/09/23 01:32:39;;;;;;;15.27;13.30;;;10.10;99.90;;;;;;5099849;28;20449;-67
2022/09/23 01:35:11;;;;;;;15.93;14.30;;;10.10;99.90;;;;;;5093748;28;20449;-68
2022/09/23 01:37:47;;;;;;;14.60;13.47;;;10.00;99.90;;;;;;5094103;28;20466;-69
2022/09/23 01:40:20;;;;;;;15.73;14.70;;;10.00;99.90;;;;;;5092279;28;20453;-65
2022/09/23 01:42:53;;;;;;;13.90;12.90;;;10.00;99.90;;;;;;5091669;28;20467;-68
2022/09/23 01:45:25;;;;;;;13.67;12.47;;;10.00;99.90;;;;;;5094690;28;20550;-68
2022/09/23 01:47:57;;;;;;;14.23;12.87;;;9.90;99.90;;;;;;5098256;28;20461;-67
2022/09/23 01:53:18;;;;;;;13.87;12.70;;;9.90;99.90;;;;;;5090509;28;20461;-67
2022/09/23 01:55:49;;;;;;;13.53;12.53;;;9.80;99.90;;;;;;5094237;28;20473;-71
2022/09/23 01:58:20;;;;;;;13.67;12.57;;;9.80;99.90;;;;;;5093767;28;20519;-67
2022/09/23 02:00:53;;;;;;;13.80;12.40;;;9.80;99.90;;;;;;5090931;28;20470;-67
2022/09/23 02:03:25;;;;;;;14.13;13.13;;;9.80;99.90;;;;;;5092693;28;20486;-67
2022/09/23 02:05:57;;;;;;;13.53;12.70;;;9.80;99.90;;;;;;5093249;28;20554;-70
2022/09/23 02:08:29;;;;;;;12.90;12.00;;;9.70;99.90;;;;;;5095088;28;20465;-67
2022/09/23 02:10:58;;;;;;;14.30;13.00;;;9.70;99.90;;;;;;5095213;28;20845;-71
2022/09/23 02:13:31;;;;;;;12.97;12.17;;;9.70;99.90;;;;;;5096981;28;20556;-68
2022/09/23 02:16:01;;;;;;;13.13;12.23;;;9.70;99.90;;;;;;5095805;28;21040;-68
2022/09/23 02:18:34;;;;;;;13.27;12.23;;;9.70;99.90;;;;;;5094440;28;20533;-67
2022/09/23 02:21:06;;;;;;;14.13;13.10;;;9.60;99.90;;;;;;5095029;28;20458;-70
2022/09/23 02:23:38;;;;;;;13.67;12.30;;;9.60;99.90;;;;;;5092578;28;20472;-67
2022/09/23 02:26:11;;;;;;;12.63;11.83;;;9.60;99.90;;;;;;5092654;28;20508;-68
2022/09/23 02:28:47;;;;;;;12.83;11.83;;;9.60;99.90;;;;;;5096732;28;20489;-68
2022/09/23 02:31:25;;;;;;;15.40;12.60;;;9.60;99.90;;;;;;5096591;28;20461;-68
2022/09/23 02:33:58;;;;;;;12.97;11.50;;;9.60;99.90;;;;;;5093200;28;20856;-69
2022/09/23 02:36:31;;;;;;;13.50;12.33;;;9.60;99.90;;;;;;5092055;28;20462;-70
2022/09/23 02:39:01;;;;;;;12.60;11.90;;;9.60;99.90;;;;;;5093100;28;20544;-68
2022/09/23 02:41:35;;;;;;;14.03;12.80;;;9.50;99.90;;;;;;5090692;28;20462;-70
2022/09/23 02:44:05;;;;;;;13.03;12.17;;;9.50;99.90;;;;;;5096656;28;20823;-67
2022/09/23 02:46:33;;;;;;;13.73;12.20;;;9.50;99.90;;;;;;5094867;28;20530;-70
2022/09/23 02:49:09;;;;;;;12.90;11.90;;;9.50;99.90;;;;;;5089902;28;20465;-68
2022/09/23 02:51:37;;;;;;;13.80;12.90;;;9.50;99.90;;;;;;5093611;28;20460;-69
2022/09/23 02:54:06;;;;;;;13.80;12.70;;;9.40;99.90;;;;;;5100984;28;20461;-68
2022/09/23 02:56:34;;;;;;;14.13;13.03;;;9.40;99.90;;;;;;5090426;28;20497;-68
2022/09/23 02:59:01;;;;;;;13.90;12.60;;;9.30;99.90;;;;;;5098314;28;20880;-68
2022/09/23 03:01:38;;;;;;;14.40;12.90;;;9.30;99.90;;;;;;5092318;28;20514;-68
2022/09/23 03:04:13;;;;;;;25.23;13.80;;;9.30;99.90;;;;;;5097963;28;20510;-68
2022/09/23 03:06:50;;;;;;;13.60;12.60;;;9.20;99.90;;;;;;5095998;28;20496;-70
2022/09/23 03:09:22;;;;;;;12.60;11.90;;;9.30;99.90;;;;;;5095129;28;20452;-68
2022/09/23 03:11:57;;;;;;;13.17;12.17;;;9.30;99.90;;;;;;5098031;28;20457;-67
2022/09/23 03:14:32;;;;;;;14.07;12.97;;;9.20;99.90;;;;;;5094326;28;20460;-71
2022/09/23 03:17:03;;;;;;;13.13;12.13;;;9.20;99.90;;;;;;5090630;28;20468;-69
2022/09/23 03:19:35;;;;;;;15.10;13.27;;;9.20;99.90;;;;;;5094868;28;20823;-67
2022/09/23 03:22:07;;;;;;;14.30;13.13;;;9.30;99.90;;;;;;5089800;28;20469;-68
2022/09/23 03:24:38;;;;;;;13.73;12.60;;;9.20;99.90;;;;;;5095826;28;20802;-67
2022/09/23 03:27:12;;;;;;;12.90;11.60;;;9.20;99.90;;;;;;5095529;28;20462;-68
2022/09/23 03:29:41;;;;;;;13.70;12.47;;;9.20;99.90;;;;;;5092720;28;20462;-68
2022/09/23 03:32:08;;;;;;;13.40;12.50;;;9.20;99.90;;;;;;5089831;28;20449;-68
2022/09/23 03:34:38;;;;;;;14.30;12.90;;;9.10;99.90;;;;;;5094205;28;20468;-68
2022/09/23 03:37:10;;;;;;;13.23;12.33;;;9.10;99.90;;;;;;5091323;28;20454;-67
2022/09/23 03:39:40;;;;;;;13.43;12.50;;;9.10;99.90;;;;;;5094569;28;20900;-68
2022/09/23 03:42:15;;;;;;;15.07;12.87;;;9.10;99.90;;;;;;5091625;28;20936;-68
2022/09/23 03:44:44;;;;;;;14.20;12.73;;;9.00;99.90;;;;;;5096194;28;20453;-67
2022/09/23 03:47:13;;;;;;;13.40;12.07;;;9.00;99.90;;;;;;5093582;28;20556;-68
2022/09/23 03:49:44;;;;;;;13.73;12.73;;;8.90;99.90;;;;;;5090504;28;20466;-69
2022/09/23 03:52:11;;;;;;;19.43;12.97;;;9.00;99.90;;;;;;5101135;28;20483;-67
2022/09/23 03:54:37;;;;;;;13.17;12.27;;;9.00;99.90;;;;;;5094193;28;20465;-68
2022/09/23 03:57:04;;;;;;;14.17;12.60;;;9.00;99.90;;;;;;5096945;28;20457;-71
2022/09/23 03:59:31;;;;;;;13.43;12.53;;;9.00;99.90;;;;;;5095352;28;20480;-70
2022/09/23 04:01:59;;;;;;;13.77;12.57;;;9.00;99.90;;;;;;5086842;28;20461;-68
2022/09/23 04:04:26;;;;;;;13.90;12.70;;;9.00;99.90;;;;;;5090153;28;20531;-68
2022/09/23 04:06:55;;;;;;;14.90;13.60;;;8.90;99.90;;;;;;5091502;28;20848;-69
2022/09/23 04:09:21;;;;;;;14.70;13.47;;;8.90;99.90;;;;;;5091361;28;20462;-70
2022/09/23 04:11:49;;;;;;;13.90;12.67;;;8.90;99.90;;;;;;5094543;28;20456;-68
2022/09/23 04:14:17;;;;;;;13.53;12.70;;;8.90;99.90;;;;;;5089365;28;20956;-67
2022/09/23 04:16:45;;;;;;;14.67;13.47;;;8.90;99.90;;;;;;5089560;28;20453;-68
2022/09/23 04:19:12;;;;;;;15.90;12.00;;;8.90;99.90;;;;;;5094561;28;20460;-69
2022/09/23 04:21:39;;;;;;;15.17;13.30;;;8.90;99.90;;;;;;5090566;28;20465;-68
2022/09/23 04:24:08;;;;;;;14.80;13.30;;;8.90;99.90;;;;;;5092963;28;20471;-68
2022/09/23 04:26:35;;;;;;;15.10;13.60;;;8.90;99.90;;;;;;5087168;28;20489;-68
2022/09/23 04:29:03;;;;;;;14.80;13.27;;;8.90;99.90;;;;;;5089269;28;20521;-68
2022/09/23 04:31:30;;;;;;;13.93;12.43;;;8.80;99.90;;;;;;5089874;28;20562;-69
2022/09/23 04:33:57;;;;;;;15.50;14.03;;;8.70;99.90;;;;;;5095385;28;20465;-69
2022/09/23 04:36:25;;;;;;;14.43;12.80;;;8.70;99.90;;;;;;5090459;28;20877;-67
2022/09/23 04:38:52;;;;;;;14.50;13.30;;;8.70;99.90;;;;;;5092328;28;20983;-70
2022/09/23 04:41:20;;;;;;;14.67;13.47;;;8.70;99.90;;;;;;5090392;28;20466;-70
2022/09/23 04:43:47;;;;;;;14.67;13.23;;;8.70;99.90;;;;;;5092535;28;20864;-68
2022/09/23 04:46:15;;;;;;;14.50;13.30;;;8.60;99.90;;;;;;5096490;28;20507;-69
2022/09/23 04:48:43;;;;;;;14.60;13.30;;;8.70;99.90;;;;;;5090025;28;20461;-68
2022/09/23 04:51:12;;;;;;;15.07;13.87;;;8.70;99.90;;;;;;5092466;28;20473;-70
2022/09/23 04:53:40;;;;;;;14.83;13.53;;;8.60;99.90;;;;;;5095423;28;20472;-68
2022/09/23 04:56:10;;;;;;;16.30;13.63;;;8.60;99.90;;;;;;5095535;28;20471;-68
2022/09/23 04:58:39;;;;;;;18.30;13.70;;;8.50;99.90;;;;;;5094709;28;20460;-71
2022/09/23 05:01:10;;;;;;;17.13;14.50;;;8.50;99.90;;;;;;5091926;28;20456;-68
2022/09/23 05:03:37;;;;;;;16.33;14.80;;;8.50;99.90;;;;;;5092010;28;20494;-72
2022/09/23 05:06:05;;;;;;;20.67;15.23;;;8.50;99.90;;;;;;5092229;28;20477;-68
2022/09/23 05:08:31;;;;;;;17.33;14.43;;;8.40;99.90;;;;;;5088614;28;20450;-69
2022/09/23 05:10:58;;;;;;;18.23;14.97;;;8.40;99.90;;;;;;5094950;28;20542;-66
2022/09/23 05:13:25;;;;;;;14.97;13.97;;;8.40;99.90;;;;;;5092343;28;20495;-66
2022/09/23 05:15:59;;;;;;;15.70;14.30;;;8.40;99.90;;;;;;5090783;28;20461;-69
2022/09/23 05:18:26;;;;;;;16.40;14.63;;;8.30;99.90;;;;;;5091783;28;20463;-68
2022/09/23 05:20:54;;;;;;;16.90;15.40;;;8.30;99.90;;;;;;5094202;28;20475;-68
2022/09/23 05:23:21;;;;;;;18.60;15.57;;;8.30;99.90;;;;;;5093645;28;20464;-68
2022/09/23 05:25:48;;;;;;;16.67;15.10;;;8.20;99.90;;;;;;5094162;28;20494;-69
2022/09/23 05:28:18;;;;;;;17.47;16.00;;;8.10;99.90;;;;;;5094781;28;20556;-68
2022/09/23 05:30:45;;;;;;;16.20;15.10;;;8.00;99.90;;;;;;5092856;28;20519;-67
2022/09/23 05:33:14;;;;;;;16.97;15.33;;;8.10;99.90;;;;;;5090328;28;20500;-69
2022/09/23 05:35:46;;;;;;;16.20;14.93;;;8.10;99.90;;;;;;5090960;28;20460;-69
2022/09/23 05:38:15;;;;;;;16.10;14.90;;;8.00;99.90;;;;;;5091258;28;20476;-69
2022/09/23 05:40:42;;;;;;;16.93;15.20;;;8.00;99.90;;;;;;5092015;28;20460;-71
2022/09/23 05:43:08;;;;;;;15.90;14.70;;;8.00;99.90;;;;;;5093540;28;20485;-70
2022/09/23 05:45:36;;;;;;;17.27;15.83;;;8.10;99.90;;;;;;5090222;28;20956;-69
2022/09/23 05:48:03;;;;;;;16.03;14.80;;;8.20;99.90;;;;;;5100949;28;20458;-68
2022/09/23 05:50:32;;;;;;;16.27;14.90;;;8.20;99.90;;;;;;5095309;28;20462;-69
2022/09/23 05:52:59;;;;;;;16.07;14.50;;;8.30;99.90;;;;;;5094039;28;20511;-68
2022/09/23 05:55:26;;;;;;;15.03;13.83;;;8.30;99.90;;;;;;5091274;28;20549;-70
2022/09/23 05:57:53;;;;;;;15.57;14.10;;;8.40;99.90;;;;;;5091889;28;20565;-71
2022/09/23 06:00:20;;;;;;;21.70;14.93;;;8.50;99.90;;;;;;5088295;28;20466;-68
2022/09/23 06:02:48;;;;;;;20.80;15.00;;;8.70;99.90;;;;;;5094664;28;20530;-71
2022/09/23 06:05:16;;;;;;;14.50;13.50;;;8.80;99.90;;;;;;5091583;28;20453;-70
2022/09/23 06:07:44;;;;;;;17.47;13.90;;;8.90;99.90;;;;;;5092654;28;20573;-69
2022/09/23 06:10:10;;;;;;;14.50;13.40;;;9.00;99.90;;;;;;5090955;28;20493;-70
2022/09/23 06:12:37;;;;;;;15.17;13.80;;;9.10;99.90;;;;;;5088971;28;20465;-69
2022/09/23 06:15:05;;;;;;;14.40;12.90;;;9.20;99.90;;;;;;5089458;28;20473;-69
2022/09/23 06:17:32;;;;;;;14.77;13.03;;;9.30;99.90;;;;;;5092024;28;20850;-69
2022/09/23 06:19:58;;;;;;;13.60;12.40;;;9.40;99.90;;;;;;5088361;28;20463;-70
2022/09/23 06:22:25;;;;;;;14.20;13.30;;;9.50;99.90;;;;;;5091786;28;20458;-69
2022/09/23 06:24:53;;;;;;;15.33;13.87;;;9.60;99.90;;;;;;5087701;28;20972;-67
2022/09/23 06:27:20;;;;;;;15.53;14.10;;;9.80;99.90;;;;;;5092773;28;20978;-69
2022/09/23 06:29:49;;;;;;;15.63;13.90;;;9.90;99.90;;;;;;5092294;28;20990;-67
2022/09/23 06:32:16;;;;;;;14.73;13.47;;;10.00;99.90;;;;;;5091516;28;20487;-67
2022/09/23 06:34:44;;;;;;;15.20;14.07;;;10.20;99.90;;;;;;5096683;28;20467;-67
2022/09/23 06:37:12;;;;;;;16.00;14.60;;;10.30;99.90;;;;;;5095153;28;20454;-67
2022/09/23 06:39:38;;;;;;;15.53;14.23;;;10.40;99.90;;;;;;5092788;28;20453;-70
2022/09/23 06:42:07;;;;;;;16.30;14.80;;;10.60;99.90;;;;;;5093989;28;20919;-69
2022/09/23 06:44:34;;;;;;;16.80;15.03;;;10.60;99.90;;;;;;5090025;28;20477;-67
2022/09/23 06:47:01;;;;;;;16.73;15.20;;;10.80;99.90;;;;;;5094920;28;20488;-67
2022/09/23 06:49:28;;;;;;;23.73;16.60;;;10.90;99.90;;;;;;5091967;28;20956;-67
2022/09/23 06:51:55;;;;;;;20.87;15.63;;;11.00;99.90;;;;;;5095551;28;20515;-69
2022/09/23 06:54:22;;;;;;;16.80;15.40;;;11.20;99.90;;;;;;5091328;28;21302;-68
2022/09/23 06:56:50;;;;;;;19.00;15.30;;;11.30;99.90;;;;;;5091451;28;20458;-68
2022/09/23 06:59:18;;;;;;;21.10;15.70;;;11.30;99.90;;;;;;5090011;28;20888;-67
2022/09/23 07:01:46;;;;;;;16.50;15.40;;;11.50;99.90;;;;;;5094376;28;20462;-70
2022/09/23 07:04:14;;;;;;;20.23;15.60;;;11.50;99.90;;;;;;5092514;28;20461;-67
2022/09/23 07:06:41;;;;;;;19.27;17.40;;;11.70;99.90;;;;;;5092494;28;20485;-67
2022/09/23 07:09:09;;;;;;;17.37;16.07;;;11.90;99.90;;;;;;5092140;28;20469;-67
2022/09/23 07:11:38;;;;;;;18.33;16.60;;;12.00;99.90;;;;;;5092327;28;20508;-67
2022/09/23 07:14:05;;;;;;;18.77;16.77;;;12.10;99.90;;;;;;5094748;28;20461;-67
2022/09/23 07:16:33;;;;;;;17.77;16.23;;;12.10;99.90;;;;;;5095069;28;20458;-67
2022/09/23 07:19:01;;;;;;;16.70;15.43;;;12.30;99.90;;;;;;5090446;28;20477;-67
2022/09/23 07:21:28;;;;;;;17.27;16.00;;;12.40;99.90;;;;;;5095029;28;20503;-67
2022/09/23 07:23:56;;;;;;;17.87;16.30;;;12.60;99.90;;;;;;5092189;28;20462;-68
2022/09/23 07:26:24;;;;;;;17.73;16.37;;;12.60;99.90;;;;;;5094528;28;20569;-67
2022/09/23 07:28:55;;;;;;;18.67;16.90;;;12.90;99.90;;;;;;5091061;28;20485;-67
2022/09/23 07:31:22;;;;;;;22.00;17.17;;;12.90;99.90;;;;;;5092024;28;20453;-68
2022/09/23 07:33:56;;;;;;;18.37;17.00;;;12.90;99.90;;;;;;5089925;28;20465;-67
2022/09/23 07:36:26;;;;;;;18.63;16.80;;;12.80;99.90;;;;;;5094149;28;20473;-68
2022/09/23 07:38:56;;;;;;;18.87;17.20;;;13.00;99.90;;;;;;5086281;28;20566;-67
2022/09/23 07:41:26;;;;;;;18.20;16.80;;;13.10;99.90;;;;;;5092982;28;20544;-70
2022/09/23 07:43:57;;;;;;;19.37;15.93;;;13.20;99.90;;;;;;5094615;28;20506;-68
2022/09/23 07:46:26;;;;;;;22.80;17.13;;;13.30;99.90;;;;;;5089939;28;20931;-67
2022/09/23 07:48:54;;;;;;;22.43;16.83;;;13.30;99.90;;;;;;5088438;28;20541;-69
2022/09/23 07:51:26;;;;;;;23.70;17.10;;;13.40;99.90;;;;;;5089048;28;20469;-69
2022/09/23 07:53:55;;;;;;;18.97;17.27;;;13.40;99.90;;;;;;5092948;28;20446;-70
2022/09/23 07:56:25;;;;;;;17.67;16.33;;;13.60;99.90;;;;;;5097426;28;20553;-68
2022/09/23 07:59:01;;;;;;;19.17;17.13;;;13.70;99.90;;;;;;5094417;28;20486;-68
2022/09/23 08:01:30;;;;;;;24.30;17.37;;;13.90;99.90;;;;;;5093407;28;20464;-68
2022/09/23 08:04:00;;;;;;;18.53;17.00;;;13.90;99.90;;;;;;5092315;28;20967;-68
2022/09/23 08:06:27;;;;;;;18.07;16.60;;;14.20;99.90;;;;;;5094456;28;20863;-67
2022/09/23 08:08:56;;;;;;;18.80;17.00;;;14.30;99.90;;;;;;5093680;28;20477;-67
2022/09/23 08:11:24;;;;;;;22.13;17.10;;;14.50;99.90;;;;;;5097192;28;20787;-67
2022/09/23 08:13:52;;;;;;;19.50;17.93;;;14.60;99.90;;;;;;5096114;28;20457;-67
2022/09/23 08:16:19;;;;;;;18.30;16.77;;;14.60;99.90;;;;;;5096543;28;20441;-69
2022/09/23 08:18:46;;;;;;;18.40;16.97;;;14.80;99.90;;;;;;5097080;28;21073;-70
2022/09/23 08:21:19;;;;;;;19.50;17.60;;;15.00;99.90;;;;;;5097009;28;20458;-70
2022/09/23 08:23:45;;;;;;;18.63;17.27;;;15.20;99.90;;;;;;5092782;28;20466;-67
2022/09/23 08:26:12;;;;;;;18.83;17.43;;;15.20;99.90;;;;;;5092424;28;20712;-68
2022/09/23 08:28:39;;;;;;;18.30;17.10;;;15.20;99.90;;;;;;5094333;28;20509;-69
2022/09/23 08:31:08;;;;;;;19.40;18.00;;;15.10;99.90;;;;;;5099179;28;20461;-67
2022/09/23 08:33:34;;;;;;;19.93;18.30;;;15.30;99.90;;;;;;5096447;28;20917;-67
2022/09/23 08:36:02;;;;;;;18.50;17.30;;;15.40;99.90;;;;;;5098188;28;20488;-67
2022/09/23 08:38:33;;;;;;;18.97;17.47;;;15.40;99.90;;;;;;5094142;28;20858;-69
2022/09/23 08:41:10;;;;;;;18.40;17.00;;;15.40;99.90;;;;;;5095133;28;20465;-69
2022/09/23 08:43:38;;;;;;;19.37;17.80;;;15.60;99.90;;;;;;5093218;28;20519;-68
2022/09/23 08:46:09;;;;;;;19.20;17.80;;;15.70;99.90;;;;;;5092351;28;21036;-66
2022/09/23 08:48:42;;;;;;;18.67;17.13;;;15.70;99.90;;;;;;5095649;28;20519;-67
2022/09/23 08:51:13;;;;;;;19.60;17.63;;;15.70;99.90;;;;;;5100314;28;20465;-68
2022/09/23 08:53:44;;;;;;;18.77;17.13;;;15.80;99.90;;;;;;5094113;28;20465;-68
2022/09/23 08:56:14;;;;;;;18.60;17.30;;;15.90;99.90;;;;;;5093993;28;20461;-67
2022/09/23 08:58:51;;;;;;;18.80;17.50;;;16.10;99.90;;;;;;5089076;28;20462;-68
2022/09/23 09:01:25;;;;;;;20.47;18.27;;;16.20;99.90;;;;;;5093510;28;20472;-68
2022/09/23 09:03:54;;;;;;;20.17;17.80;;;16.30;99.90;;;;;;5094195;28;20471;-67
2022/09/23 09:06:29;;;;;;;19.00;17.37;;;16.50;99.90;;;;;;5087358;28;20981;-67
2022/09/23 09:09:00;;;;;;;18.73;17.20;;;16.50;99.90;;;;;;5094391;28;20444;-67
2022/09/23 09:11:34;;;;;;;18.67;17.13;;;16.70;99.90;;;;;;5093837;28;20472;-68
2022/09/23 09:14:11;;;;;;;18.40;16.90;;;17.00;99.90;;;;;;5093426;28;20476;-68
2022/09/23 09:16:50;;;;;;;17.80;16.57;;;17.20;99.90;;;;;;5098324;28;20533;-70
2022/09/23 09:19:20;;;;;;;19.97;18.03;;;17.40;99.90;;;;;;5089318;28;20465;-68
2022/09/23 09:21:51;;;;;;;18.60;17.30;;;17.70;99.90;;;;;;5092550;28;21029;-67
2022/09/23 09:24:27;;;;;;;19.70;18.00;;;17.80;99.90;;;;;;5089011;28;20527;-67
2022/09/23 09:26:55;;;;;;;18.83;17.47;;;18.00;99.90;;;;;;5090056;28;20480;-67
2022/09/23 09:29:27;;;;;;;18.97;17.57;;;18.30;99.90;;;;;;5097038;28;20480;-67
2022/09/23 09:31:56;;;;;;;20.13;18.33;;;18.20;99.90;;;;;;5091481;28;20484;-68
2022/09/23 09:34:30;;;;;;;19.10;17.80;;;18.50;99.90;;;;;;5094594;28;20878;-69
2022/09/23 09:37:04;;;;;;;19.07;17.20;;;18.90;99.90;;;;;;5092120;28;20836;-69
2022/09/23 09:39:32;;;;;;;18.20;16.80;;;19.40;99.90;;;;;;5092718;28;20662;-68
2022/09/23 09:42:00;;;;;;;18.10;16.70;;;19.60;99.90;;;;;;5095840;28;20452;-68
2022/09/23 09:44:34;;;;;;;18.80;17.07;;;20.10;99.90;;;;;;5094180;28;20457;-67
2022/09/23 09:47:28;;;;;;;18.73;17.20;;;20.00;99.90;;;;;;5091474;28;20481;-69
2022/09/23 09:50:02;;;;;;;18.50;17.10;;;20.20;99.90;;;;;;5095444;28;20556;-67
2022/09/23 09:52:30;;;;;;;19.73;17.87;;;20.20;99.90;;;;;;5090554;28;20936;-67
2022/09/23 09:55:22;;;;;;;19.53;17.53;;;20.50;99.90;;;;;;5091516;28;20541;-67
2022/09/23 09:57:52;;;;;;;18.90;16.93;;;20.40;99.90;;;;;;5092678;28;20551;-67
2022/09/23 10:00:36;;;;;;;18.03;16.93;;;20.40;99.90;;;;;;5091527;28;20458;-66
2022/09/23 10:03:08;;;;;;;19.47;17.63;;;20.40;99.90;;;;;;5090312;28;20824;-68
2022/09/23 10:05:48;;;;;;;19.07;17.20;;;21.00;99.90;;;;;;5087222;28;20459;-68
2022/09/23 10:08:23;;;;;;;17.97;16.60;;;21.20;99.90;;;;;;5092007;28;20480;-68
2022/09/23 10:10:53;;;;;;;20.23;18.13;;;21.40;99.90;;;;;;5094746;28;20575;-67
2022/09/23 10:13:23;;;;;;;19.07;17.73;;;21.50;99.90;;;;;;5096065;28;20450;-66
2022/09/23 10:15:53;;;;;;;19.13;17.40;;;21.20;99.90;;;;;;5086680;28;21010;-67
2022/09/23 10:18:25;;;;;;;18.60;17.20;;;21.30;99.90;;;;;;5089674;28;20925;-67
2022/09/23 10:21:00;;;;;;;17.07;16.00;;;21.30;99.90;;;;;;5090659;28;20462;-68
2022/09/23 10:23:32;;;;;;;18.17;16.80;;;21.20;99.90;;;;;;5088760;28;20454;-67
2022/09/23 10:26:03;;;;;;;18.20;16.90;;;21.50;99.70;;;;;;5097274;28;20490;-67
2022/09/23 10:28:39;;;;;;;18.97;17.20;;;22.10;98.40;;;;;;5097054;28;20851;-68
2022/09/23 10:31:08;;;;;;;17.73;16.50;;;22.10;97.60;;;;;;5089310;28;20635;-68
2022/09/23 10:33:42;;;;;;;17.10;16.00;;;22.30;97.70;;;;;;5091346;28;20454;-67
2022/09/23 10:36:10;;;;;;;17.57;16.23;;;22.70;97.40;;;;;;5094188;28;20450;-67
2022/09/23 10:38:39;;;;;;;17.23;16.13;;;23.20;96.60;;;;;;5096135;28;20488;-68
2022/09/23 10:47:11;;;;;;;17.23;16.13;;;24.00;93.80;;;;;;5090256;28;20569;-66
2022/09/23 10:49:58;;;;;;;16.63;15.70;;;24.40;93.00;;;;;;5093173;28;20466;-68
2022/09/23 10:52:45;;;;;;;16.10;15.23;;;24.80;91.10;;;;;;5090663;28;20453;-67
2022/09/23 10:55:23;;;;;;;17.50;16.40;;;24.70;90.20;;;;;;5096472;28;20905;-67
2022/09/23 10:58:16;;;;;;;16.80;15.90;;;24.30;90.00;;;;;;5089364;28;20576;-67
2022/09/23 11:00:50;;;;;;;16.10;15.20;;;24.80;88.00;;;;;;5094161;28;20553;-68
2022/09/23 11:04:05;;;;;;;16.97;15.87;;;25.10;83.00;;;;;;5089481;28;20560;-68
2022/09/23 11:06:40;;;;;;;17.00;15.90;;;25.00;81.20;;;;;;5089392;28;20949;-70
2022/09/23 11:09:25;;;;;;;17.60;16.47;;;25.00;80.40;;;;;;5096059;28;20851;-68
2022/09/23 11:12:08;;;;;;;18.30;17.30;;;24.40;80.00;;;;;;5097377;28;20559;-68
2022/09/23 11:14:53;;;;;;;18.20;17.20;;;23.50;81.40;;;;;;5099332;28;20470;-68
2022/09/23 11:17:38;;;;;;;18.83;16.83;;;22.80;83.20;;;;;;5086304;28;20458;-70
2022/09/23 11:20:24;;;;;;;17.00;15.90;;;23.10;87.10;;;;;;5089979;28;20975;-69
2022/09/23 11:23:10;;;;;;;17.37;16.33;;;23.30;82.10;;;;;;5082954;28;20449;-69
2022/09/23 11:25:46;;;;;;;16.63;15.53;;;23.60;81.10;;;;;;5087625;28;20470;-70
2022/09/23 11:28:39;;;;;;;17.53;16.53;;;24.00;81.90;;;;;;5086594;28;20955;-68
2022/09/23 11:31:18;;;;;;;16.97;15.97;;;24.40;77.40;;;;;;5085898;28;20472;-68
2022/09/23 11:33:54;;;;;;;17.00;15.70;;;24.60;75.90;;;;;;5088980;28;20794;-69
2022/09/23 11:36:38;;;;;;;16.80;15.80;;;25.00;68.60;;;;;;5088856;28;20458;-68
2022/09/23 11:39:13;;;;;;;17.70;16.60;;;24.90;67.10;;;;;;5088477;28;20776;-68
2022/09/23 11:41:43;;;;;;;16.90;15.90;;;24.50;64.80;;;;;;5091885;28;20983;-69
2022/09/23 11:44:18;;;;;;;18.97;17.53;;;24.40;66.20;;;;;;5090668;28;20466;-69
2022/09/23 11:46:56;;;;;;;17.20;16.20;;;22.80;70.20;;;;;;5093431;28;20943;-68
2022/09/23 11:49:29;;;;;;;17.40;16.20;;;22.90;71.30;;;;;;5090659;28;20481;-68
2022/09/23 11:52:05;;;;;;;16.30;15.30;;;23.60;71.30;;;;;;5093172;28;20457;-68
2022/09/23 11:54:37;;;;;;;16.70;15.80;;;23.70;71.70;;;;;;5091443;28;20888;-68
2022/09/23 11:57:10;;;;;;;17.43;16.13;;;24.10;70.70;;;;;;5095400;28;20457;-68
2022/09/23 11:59:45;;;;;;;16.87;15.77;;;23.80;68.80;;;;;;5092658;28;20518;-69
2022/09/23 12:02:19;;;;;;;16.03;15.13;;;23.40;69.00;;;;;;5091769;28;20557;-68
2022/09/23 12:04:56;;;;;;;15.90;15.10;;;23.40;69.40;;;;;;5088237;28;20851;-70
2022/09/23 12:07:28;;;;;;;16.87;15.67;;;23.30;70.40;;;;;;5090970;28;20464;-68
2022/09/23 12:10:00;;;;;;;17.50;16.13;;;22.70;71.30;;;;;;5087546;28;20493;-69
2022/09/23 12:12:35;;;;;;;16.20;15.23;;;22.90;73.00;;;;;;5096455;28;20465;-69
2022/09/23 12:15:06;;;;;;;16.30;14.93;;;22.90;73.10;;;;;;5086813;28;20817;-69
2022/09/23 12:17:53;;;;;;;15.23;14.53;;;22.60;73.40;;;;;;5090284;28;20460;-68
2022/09/23 12:20:41;;;;;;;16.00;14.97;;;22.60;72.80;;;;;;5090905;28;21018;-68
2022/09/23 12:23:18;;;;;;;15.73;14.90;;;22.70;73.00;;;;;;5087683;28;20462;-68
2022/09/23 12:25:48;;;;;;;15.73;14.87;;;22.70;74.70;;;;;;5093896;28;20488;-68
2022/09/23 12:28:19;;;;;;;15.90;15.00;;;22.90;73.70;;;;;;5091327;28;20482;-69
2022/09/23 12:30:49;;;;;;;16.20;15.10;;;22.90;71.50;;;;;;5089609;28;20593;-68
2022/09/23 12:33:23;;;;;;;16.70;15.37;;;22.90;72.70;;;;;;5089532;28;20891;-68
2022/09/23 12:35:53;;;;;;;15.30;14.50;;;22.70;75.30;;;;;;5089976;28;20615;-69
2022/09/23 12:38:24;;;;;;;15.77;14.97;;;22.40;74.80;;;;;;5093933;28;20475;-69
2022/09/23 12:40:54;;;;;;;15.80;14.90;;;22.10;71.10;;;;;;5090423;28;20462;-70
2022/09/23 12:43:29;;;;;;;15.47;14.67;;;21.80;72.50;;;;;;5093338;28;20457;-69
2022/09/23 12:46:19;;;;;;;16.80;15.50;;;21.60;71.80;;;;;;5091700;28;21326;-69
2022/09/23 12:48:48;;;;;;;16.37;15.17;;;21.50;70.00;;;;;;5092502;28;20566;-69
2022/09/23 12:51:17;;;;;;;15.20;14.47;;;21.40;69.70;;;;;;5094239;28;20853;-68
2022/09/23 12:53:55;;;;;;;16.30;15.23;;;21.30;69.60;;;;;;5094949;28;20475;-69
2022/09/23 12:56:25;;;;;;;15.10;14.37;;;21.10;69.60;;;;;;5091552;28;20501;-69
2022/09/23 12:59:02;;;;;;;15.23;14.53;;;20.70;70.80;;;;;;5092163;28;21006;-68
2022/09/23 13:01:36;;;;;;;15.70;14.90;;;20.60;73.60;;;;;;5093988;28;20987;-70